sensor_id;sensor_type;location;lat;lon;timestamp;P1;durP1;ratioP1;P2;durP2;ratioP2
55314;SDS011;41619;42.816;23.226;2022-08-19T02:50:23;17.67;;;12.70;;
55314;SDS011;41619;42.816;23.226;2022-08-19T02:52:48;21.10;;;12.73;;
55314;SDS011;41619;42.816;23.226;2022-08-19T02:55:13;30.15;;;12.20;;
55314;SDS011;41619;42.816;23.226;2022-08-19T02:57:39;22.83;;;12.50;;
55314;SDS011;41619;42.816;23.226;2022-08-19T03:00:06;24.88;;;12.73;;
55314;SDS011;41619;42.816;23.226;2022-08-19T03:02:36;20.67;;;13.65;;
55314;SDS011;41619;42.816;23.226;2022-08-19T03:05:02;23.13;;;12.75;;
55314;SDS011;41619;42.816;23.226;2022-08-19T03:07:28;17.27;;;11.23;;
55314;SDS011;41619;42.816;23.226;2022-08-19T03:09:53;17.85;;;11.32;;
55314;SDS011;41619;42.816;23.226;2022-08-19T03:12:19;29.45;;;13.18;;
55314;SDS011;41619;42.816;23.226;2022-08-19T03:14:44;22.50;;;12.63;;
55314;SDS011;41619;42.816;23.226;2022-08-19T03:17:11;16.13;;;11.57;;
55314;SDS011;41619;42.816;23.226;2022-08-19T03:19:37;20.10;;;11.48;;
55314;SDS011;41619;42.816;23.226;2022-08-19T03:22:03;16.15;;;11.77;;
55314;SDS011;41619;42.816;23.226;2022-08-19T03:24:29;18.90;;;12.68;;
55314;SDS011;41619;42.816;23.226;2022-08-19T03:26:55;19.00;;;11.65;;
55314;SDS011;41619;42.816;23.226;2022-08-19T03:29:26;22.50;;;12.77;;
55314;SDS011;41619;42.816;23.226;2022-08-19T03:31:53;34.88;;;14.23;;
55314;SDS011;41619;42.816;23.226;2022-08-19T03:34:21;28.95;;;15.45;;
55314;SDS011;41619;42.816;23.226;2022-08-19T03:36:51;38.38;;;17.08;;
55314;SDS011;41619;42.816;23.226;2022-08-19T03:39:16;41.75;;;17.55;;
55314;SDS011;41619;42.816;23.226;2022-08-19T03:41:43;40.90;;;20.33;;
55314;SDS011;41619;42.816;23.226;2022-08-19T03:44:11;54.72;;;23.77;;
55314;SDS011;41619;42.816;23.226;2022-08-19T03:46:39;60.13;;;22.42;;
55314;SDS011;41619;42.816;23.226;2022-08-19T03:49:04;45.85;;;20.73;;
55314;SDS011;41619;42.816;23.226;2022-08-19T03:51:34;36.40;;;18.08;;
55314;SDS011;41619;42.816;23.226;2022-08-19T03:56:29;26.33;;;12.43;;
55314;SDS011;41619;42.816;23.226;2022-08-19T03:58:55;20.08;;;12.55;;
55314;SDS011;41619;42.816;23.226;2022-08-19T04:01:23;25.30;;;13.43;;
55314;SDS011;41619;42.816;23.226;2022-08-19T04:03:51;30.38;;;13.27;;
55314;SDS011;41619;42.816;23.226;2022-08-19T04:06:22;24.67;;;14.00;;
55314;SDS011;41619;42.816;23.226;2022-08-19T04:08:49;27.15;;;14.65;;
55314;SDS011;41619;42.816;23.226;2022-08-19T04:11:17;29.80;;;14.63;;
55314;SDS011;41619;42.816;23.226;2022-08-19T04:13:48;33.40;;;15.73;;
55314;SDS011;41619;42.816;23.226;2022-08-19T04:16:16;27.58;;;14.90;;
55314;SDS011;41619;42.816;23.226;2022-08-19T04:18:42;26.48;;;14.65;;
55314;SDS011;41619;42.816;23.226;2022-08-19T04:21:14;23.20;;;12.30;;
55314;SDS011;41619;42.816;23.226;2022-08-19T04:23:41;23.35;;;13.15;;
55314;SDS011;41619;42.816;23.226;2022-08-19T04:26:07;32.78;;;13.02;;
55314;SDS011;41619;42.816;23.226;2022-08-19T04:28:37;23.15;;;12.75;;
55314;SDS011;41619;42.816;23.226;2022-08-19T04:31:03;28.00;;;12.57;;
55314;SDS011;41619;42.816;23.226;2022-08-19T04:33:28;17.85;;;12.40;;
55314;SDS011;41619;42.816;23.226;2022-08-19T04:35:54;26.30;;;13.68;;
55314;SDS011;41619;42.816;23.226;2022-08-19T04:38:20;28.50;;;13.27;;
55314;SDS011;41619;42.816;23.226;2022-08-19T04:40:50;26.92;;;13.57;;
55314;SDS011;41619;42.816;23.226;2022-08-19T04:43:35;29.05;;;15.30;;
55314;SDS011;41619;42.816;23.226;2022-08-19T04:46:06;23.50;;;15.85;;
55314;SDS011;41619;42.816;23.226;2022-08-19T04:48:32;26.10;;;14.48;;
55314;SDS011;41619;42.816;23.226;2022-08-19T04:50:58;33.65;;;14.13;;
55314;SDS011;41619;42.816;23.226;2022-08-19T04:53:24;23.85;;;12.23;;
55314;SDS011;41619;42.816;23.226;2022-08-19T04:55:50;23.10;;;12.90;;
55314;SDS011;41619;42.816;23.226;2022-08-19T04:58:16;31.60;;;12.15;;
55314;SDS011;41619;42.816;23.226;2022-08-19T05:00:42;26.92;;;14.50;;
55314;SDS011;41619;42.816;23.226;2022-08-19T05:03:08;26.83;;;13.82;;
55314;SDS011;41619;42.816;23.226;2022-08-19T05:05:38;27.08;;;13.38;;
55314;SDS011;41619;42.816;23.226;2022-08-19T05:08:05;26.60;;;13.50;;
55314;SDS011;41619;42.816;23.226;2022-08-19T05:10:30;24.70;;;13.18;;
55314;SDS011;41619;42.816;23.226;2022-08-19T05:12:56;22.98;;;14.45;;
55314;SDS011;41619;42.816;23.226;2022-08-19T05:15:22;32.00;;;13.85;;
55314;SDS011;41619;42.816;23.226;2022-08-19T05:17:47;21.48;;;14.13;;
55314;SDS011;41619;42.816;23.226;2022-08-19T05:20:33;17.42;;;12.05;;
55314;SDS011;41619;42.816;23.226;2022-08-19T05:23:17;20.63;;;11.68;;
55314;SDS011;41619;42.816;23.226;2022-08-19T05:25:42;20.42;;;11.85;;
55314;SDS011;41619;42.816;23.226;2022-08-19T05:28:08;23.38;;;11.55;;
55314;SDS011;41619;42.816;23.226;2022-08-19T05:30:33;16.17;;;10.82;;
55314;SDS011;41619;42.816;23.226;2022-08-19T05:32:59;20.65;;;10.57;;
55314;SDS011;41619;42.816;23.226;2022-08-19T05:35:24;20.80;;;10.52;;
55314;SDS011;41619;42.816;23.226;2022-08-19T05:37:50;15.55;;;10.63;;
55314;SDS011;41619;42.816;23.226;2022-08-19T05:40:15;12.80;;;10.38;;
55314;SDS011;41619;42.816;23.226;2022-08-19T05:42:40;18.00;;;10.32;;
55314;SDS011;41619;42.816;23.226;2022-08-19T05:45:06;16.98;;;10.18;;
55314;SDS011;41619;42.816;23.226;2022-08-19T05:47:32;26.75;;;9.68;;
55314;SDS011;41619;42.816;23.226;2022-08-19T05:49:57;14.82;;;9.32;;
55314;SDS011;41619;42.816;23.226;2022-08-19T05:52:23;15.25;;;9.30;;
55314;SDS011;41619;42.816;23.226;2022-08-19T05:54:49;17.00;;;8.80;;
55314;SDS011;41619;42.816;23.226;2022-08-19T05:57:16;17.65;;;8.85;;
55314;SDS011;41619;42.816;23.226;2022-08-19T05:59:43;20.95;;;10.10;;
55314;SDS011;41619;42.816;23.226;2022-08-19T06:02:11;16.87;;;8.80;;
55314;SDS011;41619;42.816;23.226;2022-08-19T06:04:36;15.05;;;8.77;;
55314;SDS011;41619;42.816;23.226;2022-08-19T06:07:02;21.98;;;8.43;;
55314;SDS011;41619;42.816;23.226;2022-08-19T06:09:28;14.65;;;7.75;;
55314;SDS011;41619;42.816;23.226;2022-08-19T06:11:55;10.27;;;7.72;;
55314;SDS011;41619;42.816;23.226;2022-08-19T06:14:25;10.82;;;7.72;;
55314;SDS011;41619;42.816;23.226;2022-08-19T06:16:56;13.73;;;7.60;;
55314;SDS011;41619;42.816;23.226;2022-08-19T06:19:22;13.25;;;7.85;;
55314;SDS011;41619;42.816;23.226;2022-08-19T06:21:49;11.73;;;7.22;;
55314;SDS011;41619;42.816;23.226;2022-08-19T06:24:17;11.75;;;7.30;;
55314;SDS011;41619;42.816;23.226;2022-08-19T06:26:45;12.25;;;7.22;;
55314;SDS011;41619;42.816;23.226;2022-08-19T06:29:12;12.07;;;7.13;;
55314;SDS011;41619;42.816;23.226;2022-08-19T06:31:42;10.45;;;7.82;;
55314;SDS011;41619;42.816;23.226;2022-08-19T06:36:36;12.65;;;7.13;;
55314;SDS011;41619;42.816;23.226;2022-08-19T06:39:11;11.15;;;6.38;;
55314;SDS011;41619;42.816;23.226;2022-08-19T06:41:41;10.98;;;6.18;;
55314;SDS011;41619;42.816;23.226;2022-08-19T06:46:35;11.10;;;5.82;;
55314;SDS011;41619;42.816;23.226;2022-08-19T06:49:01;11.82;;;6.47;;
55314;SDS011;41619;42.816;23.226;2022-08-19T06:51:27;7.72;;;5.45;;
55314;SDS011;41619;42.816;23.226;2022-08-19T06:53:54;10.45;;;5.80;;
55314;SDS011;41619;42.816;23.226;2022-08-19T06:56:21;9.93;;;5.75;;
55314;SDS011;41619;42.816;23.226;2022-08-19T06:58:58;10.10;;;5.82;;
55314;SDS011;41619;42.816;23.226;2022-08-19T07:01:39;8.85;;;5.82;;
55314;SDS011;41619;42.816;23.226;2022-08-19T07:04:07;12.35;;;5.95;;
55314;SDS011;41619;42.816;23.226;2022-08-19T07:06:34;7.57;;;5.47;;
55314;SDS011;41619;42.816;23.226;2022-08-19T07:09:00;5.97;;;5.30;;
55314;SDS011;41619;42.816;23.226;2022-08-19T07:11:26;8.63;;;5.38;;
55314;SDS011;41619;42.816;23.226;2022-08-19T07:13:52;9.52;;;5.75;;
55314;SDS011;41619;42.816;23.226;2022-08-19T07:16:18;12.88;;;6.03;;
55314;SDS011;41619;42.816;23.226;2022-08-19T07:18:46;6.85;;;5.25;;
55314;SDS011;41619;42.816;23.226;2022-08-19T07:21:20;10.27;;;5.60;;
55314;SDS011;41619;42.816;23.226;2022-08-19T07:23:47;9.48;;;5.45;;
55314;SDS011;41619;42.816;23.226;2022-08-19T07:28:46;9.38;;;5.22;;
55314;SDS011;41619;42.816;23.226;2022-08-19T07:31:13;10.30;;;5.10;;
55314;SDS011;41619;42.816;23.226;2022-08-19T07:33:43;10.18;;;5.20;;
55314;SDS011;41619;42.816;23.226;2022-08-19T07:36:10;13.05;;;5.57;;
55314;SDS011;41619;42.816;23.226;2022-08-19T07:38:43;8.02;;;5.47;;
55314;SDS011;41619;42.816;23.226;2022-08-19T07:41:11;12.15;;;4.78;;
55314;SDS011;41619;42.816;23.226;2022-08-19T07:43:39;6.20;;;4.47;;
55314;SDS011;41619;42.816;23.226;2022-08-19T07:46:05;9.90;;;5.07;;
55314;SDS011;41619;42.816;23.226;2022-08-19T07:48:31;5.93;;;4.90;;
55314;SDS011;41619;42.816;23.226;2022-08-19T07:50:59;9.68;;;5.30;;
55314;SDS011;41619;42.816;23.226;2022-08-19T07:53:27;8.43;;;5.63;;
55314;SDS011;41619;42.816;23.226;2022-08-19T07:55:54;8.18;;;5.95;;
55314;SDS011;41619;42.816;23.226;2022-08-19T07:58:20;11.52;;;5.43;;
55314;SDS011;41619;42.816;23.226;2022-08-19T08:00:48;9.45;;;5.05;;
55314;SDS011;41619;42.816;23.226;2022-08-19T08:05:42;7.00;;;4.65;;
55314;SDS011;41619;42.816;23.226;2022-08-19T08:08:27;11.45;;;5.18;;
55314;SDS011;41619;42.816;23.226;2022-08-19T08:10:56;9.80;;;4.55;;
55314;SDS011;41619;42.816;23.226;2022-08-19T08:13:22;15.38;;;4.90;;
55314;SDS011;41619;42.816;23.226;2022-08-19T08:15:47;8.07;;;5.20;;
55314;SDS011;41619;42.816;23.226;2022-08-19T08:18:12;7.45;;;5.50;;
55314;SDS011;41619;42.816;23.226;2022-08-19T08:20:38;13.60;;;5.20;;
55314;SDS011;41619;42.816;23.226;2022-08-19T08:23:03;10.48;;;5.10;;
55314;SDS011;41619;42.816;23.226;2022-08-19T08:25:48;13.30;;;5.18;;
55314;SDS011;41619;42.816;23.226;2022-08-19T08:28:14;8.25;;;5.20;;
55314;SDS011;41619;42.816;23.226;2022-08-19T08:30:40;13.60;;;6.20;;
55314;SDS011;41619;42.816;23.226;2022-08-19T08:33:07;10.10;;;5.13;;
55314;SDS011;41619;42.816;23.226;2022-08-19T08:35:33;8.80;;;4.70;;
55314;SDS011;41619;42.816;23.226;2022-08-19T08:37:58;9.10;;;4.85;;
55314;SDS011;41619;42.816;23.226;2022-08-19T08:43:21;7.40;;;4.65;;
55314;SDS011;41619;42.816;23.226;2022-08-19T08:48:39;8.55;;;4.57;;
55314;SDS011;41619;42.816;23.226;2022-08-19T08:51:25;10.70;;;3.97;;
55314;SDS011;41619;42.816;23.226;2022-08-19T08:53:54;8.88;;;4.82;;
55314;SDS011;41619;42.816;23.226;2022-08-19T08:56:20;5.75;;;3.95;;
55314;SDS011;41619;42.816;23.226;2022-08-19T08:59:00;6.40;;;4.20;;
55314;SDS011;41619;42.816;23.226;2022-08-19T09:01:31;8.52;;;4.30;;
55314;SDS011;41619;42.816;23.226;2022-08-19T09:03:57;6.78;;;3.72;;
55314;SDS011;41619;42.816;23.226;2022-08-19T09:06:36;8.73;;;4.00;;
55314;SDS011;41619;42.816;23.226;2022-08-19T09:09:18;8.98;;;4.15;;
55314;SDS011;41619;42.816;23.226;2022-08-19T09:11:59;4.47;;;3.97;;
55314;SDS011;41619;42.816;23.226;2022-08-19T09:17:26;6.25;;;4.00;;
55314;SDS011;41619;42.816;23.226;2022-08-19T09:22:33;8.65;;;3.65;;
55314;SDS011;41619;42.816;23.226;2022-08-19T09:25:00;8.53;;;3.43;;
55314;SDS011;41619;42.816;23.226;2022-08-19T09:27:26;6.88;;;3.67;;
55314;SDS011;41619;42.816;23.226;2022-08-19T09:29:53;4.57;;;3.67;;
55314;SDS011;41619;42.816;23.226;2022-08-19T09:32:20;8.07;;;3.10;;
55314;SDS011;41619;42.816;23.226;2022-08-19T09:34:46;5.15;;;3.05;;
55314;SDS011;41619;42.816;23.226;2022-08-19T09:37:12;5.18;;;3.30;;
55314;SDS011;41619;42.816;23.226;2022-08-19T09:39:38;5.38;;;3.42;;
55314;SDS011;41619;42.816;23.226;2022-08-19T09:42:05;5.70;;;3.40;;
55314;SDS011;41619;42.816;23.226;2022-08-19T09:44:36;5.32;;;3.50;;
55314;SDS011;41619;42.816;23.226;2022-08-19T09:47:06;6.43;;;3.30;;
55314;SDS011;41619;42.816;23.226;2022-08-19T09:49:32;5.57;;;3.30;;
55314;SDS011;41619;42.816;23.226;2022-08-19T09:51:58;4.10;;;3.00;;
55314;SDS011;41619;42.816;23.226;2022-08-19T09:54:24;3.38;;;2.70;;
55314;SDS011;41619;42.816;23.226;2022-08-19T09:56:51;5.93;;;2.80;;
55314;SDS011;41619;42.816;23.226;2022-08-19T09:59:17;5.90;;;3.58;;
55314;SDS011;41619;42.816;23.226;2022-08-19T10:01:43;5.50;;;3.28;;
55314;SDS011;41619;42.816;23.226;2022-08-19T10:04:08;8.70;;;3.05;;
55314;SDS011;41619;42.816;23.226;2022-08-19T10:06:34;4.43;;;3.20;;
55314;SDS011;41619;42.816;23.226;2022-08-19T10:09:03;8.50;;;4.00;;
55314;SDS011;41619;42.816;23.226;2022-08-19T10:11:31;8.13;;;3.22;;
55314;SDS011;41619;42.816;23.226;2022-08-19T10:13:57;4.18;;;3.13;;
55314;SDS011;41619;42.816;23.226;2022-08-19T10:16:23;5.13;;;3.20;;
55314;SDS011;41619;42.816;23.226;2022-08-19T10:18:49;8.57;;;3.17;;
55314;SDS011;41619;42.816;23.226;2022-08-19T10:21:16;7.07;;;3.80;;
55314;SDS011;41619;42.816;23.226;2022-08-19T10:23:49;5.80;;;3.25;;
55314;SDS011;41619;42.816;23.226;2022-08-19T10:26:18;10.57;;;2.95;;
55314;SDS011;41619;42.816;23.226;2022-08-19T10:28:46;4.55;;;3.20;;
55314;SDS011;41619;42.816;23.226;2022-08-19T10:31:13;9.63;;;3.70;;
55314;SDS011;41619;42.816;23.226;2022-08-19T10:33:42;5.55;;;3.40;;
55314;SDS011;41619;42.816;23.226;2022-08-19T10:36:12;10.88;;;3.25;;
55314;SDS011;41619;42.816;23.226;2022-08-19T10:38:49;4.78;;;3.30;;
55314;SDS011;41619;42.816;23.226;2022-08-19T10:41:17;6.03;;;3.47;;
55314;SDS011;41619;42.816;23.226;2022-08-19T10:43:44;8.63;;;3.13;;
55314;SDS011;41619;42.816;23.226;2022-08-19T10:46:14;4.15;;;3.17;;
55314;SDS011;41619;42.816;23.226;2022-08-19T10:48:41;6.20;;;3.40;;
55314;SDS011;41619;42.816;23.226;2022-08-19T10:51:07;8.50;;;3.42;;
55314;SDS011;41619;42.816;23.226;2022-08-19T10:53:52;4.90;;;3.35;;
55314;SDS011;41619;42.816;23.226;2022-08-19T10:56:17;7.80;;;3.45;;
55314;SDS011;41619;42.816;23.226;2022-08-19T10:59:02;12.05;;;3.75;;
55314;SDS011;41619;42.816;23.226;2022-08-19T11:01:28;8.13;;;3.75;;
55314;SDS011;41619;42.816;23.226;2022-08-19T11:03:55;7.18;;;2.92;;
55314;SDS011;41619;42.816;23.226;2022-08-19T11:06:22;9.57;;;3.70;;
55314;SDS011;41619;42.816;23.226;2022-08-19T11:08:50;9.63;;;3.83;;
55314;SDS011;41619;42.816;23.226;2022-08-19T11:11:15;9.65;;;3.63;;
55314;SDS011;41619;42.816;23.226;2022-08-19T11:13:42;7.13;;;3.83;;
55314;SDS011;41619;42.816;23.226;2022-08-19T11:16:10;7.10;;;3.43;;
55314;SDS011;41619;42.816;23.226;2022-08-19T11:18:43;7.45;;;3.38;;
55314;SDS011;41619;42.816;23.226;2022-08-19T11:23:45;7.75;;;3.15;;
55314;SDS011;41619;42.816;23.226;2022-08-19T11:26:12;4.83;;;3.20;;
55314;SDS011;41619;42.816;23.226;2022-08-19T11:28:39;5.80;;;3.42;;
55314;SDS011;41619;42.816;23.226;2022-08-19T11:31:08;6.97;;;3.45;;
55314;SDS011;41619;42.816;23.226;2022-08-19T11:33:36;5.75;;;3.55;;
55314;SDS011;41619;42.816;23.226;2022-08-19T11:36:02;4.00;;;3.25;;
55314;SDS011;41619;42.816;23.226;2022-08-19T11:38:27;8.77;;;3.35;;
55314;SDS011;41619;42.816;23.226;2022-08-19T11:40:54;10.20;;;3.72;;
55314;SDS011;41619;42.816;23.226;2022-08-19T11:43:20;6.68;;;3.22;;
55314;SDS011;41619;42.816;23.226;2022-08-19T11:45:46;8.07;;;3.10;;
55314;SDS011;41619;42.816;23.226;2022-08-19T11:48:13;4.05;;;2.90;;
55314;SDS011;41619;42.816;23.226;2022-08-19T11:50:39;8.13;;;3.47;;
55314;SDS011;41619;42.816;23.226;2022-08-19T11:55:32;8.00;;;3.80;;
55314;SDS011;41619;42.816;23.226;2022-08-19T11:57:57;7.85;;;3.55;;
55314;SDS011;41619;42.816;23.226;2022-08-19T12:00:22;5.38;;;3.17;;
55314;SDS011;41619;42.816;23.226;2022-08-19T12:02:48;12.43;;;3.47;;
55314;SDS011;41619;42.816;23.226;2022-08-19T12:05:13;9.13;;;3.78;;
55314;SDS011;41619;42.816;23.226;2022-08-19T12:07:39;5.32;;;3.15;;
55314;SDS011;41619;42.816;23.226;2022-08-19T12:10:05;10.18;;;3.40;;
55314;SDS011;41619;42.816;23.226;2022-08-19T12:12:31;6.20;;;3.53;;
55314;SDS011;41619;42.816;23.226;2022-08-19T12:14:56;17.75;;;3.60;;
55314;SDS011;41619;42.816;23.226;2022-08-19T12:17:24;10.65;;;3.95;;
55314;SDS011;41619;42.816;23.226;2022-08-19T12:19:50;6.95;;;3.53;;
55314;SDS011;41619;42.816;23.226;2022-08-19T12:22:16;6.10;;;3.83;;
55314;SDS011;41619;42.816;23.226;2022-08-19T12:24:41;9.70;;;3.35;;
55314;SDS011;41619;42.816;23.226;2022-08-19T12:27:07;9.98;;;3.92;;
55314;SDS011;41619;42.816;23.226;2022-08-19T12:29:32;9.82;;;3.75;;
55314;SDS011;41619;42.816;23.226;2022-08-19T12:31:58;8.23;;;3.63;;
55314;SDS011;41619;42.816;23.226;2022-08-19T12:34:31;7.95;;;4.05;;
55314;SDS011;41619;42.816;23.226;2022-08-19T12:36:58;10.60;;;3.75;;
55314;SDS011;41619;42.816;23.226;2022-08-19T12:39:24;12.02;;;3.70;;
55314;SDS011;41619;42.816;23.226;2022-08-19T12:41:50;8.07;;;3.63;;
55314;SDS011;41619;42.816;23.226;2022-08-19T12:44:16;9.35;;;3.90;;
55314;SDS011;41619;42.816;23.226;2022-08-19T12:46:41;8.60;;;3.60;;
55314;SDS011;41619;42.816;23.226;2022-08-19T12:49:07;6.88;;;3.33;;
55314;SDS011;41619;42.816;23.226;2022-08-19T12:51:33;8.55;;;3.72;;
55314;SDS011;41619;42.816;23.226;2022-08-19T12:53:58;8.82;;;3.47;;
55314;SDS011;41619;42.816;23.226;2022-08-19T12:56:24;12.18;;;3.97;;
55314;SDS011;41619;42.816;23.226;2022-08-19T12:58:50;7.65;;;3.47;;
55314;SDS011;41619;42.816;23.226;2022-08-19T13:01:16;8.55;;;3.72;;
55314;SDS011;41619;42.816;23.226;2022-08-19T13:03:44;8.48;;;3.22;;
55314;SDS011;41619;42.816;23.226;2022-08-19T13:06:11;7.18;;;3.90;;
55314;SDS011;41619;42.816;23.226;2022-08-19T13:08:37;13.90;;;3.47;;
55314;SDS011;41619;42.816;23.226;2022-08-19T13:11:06;11.75;;;3.75;;
55314;SDS011;41619;42.816;23.226;2022-08-19T13:13:33;8.98;;;3.42;;
55314;SDS011;41619;42.816;23.226;2022-08-19T13:16:00;6.20;;;3.40;;
55314;SDS011;41619;42.816;23.226;2022-08-19T13:18:29;10.13;;;3.03;;
55314;SDS011;41619;42.816;23.226;2022-08-19T13:20:56;8.25;;;3.78;;
55314;SDS011;41619;42.816;23.226;2022-08-19T13:23:21;6.45;;;3.00;;
55314;SDS011;41619;42.816;23.226;2022-08-19T13:25:55;8.23;;;3.72;;
55314;SDS011;41619;42.816;23.226;2022-08-19T13:28:22;8.88;;;4.03;;
55314;SDS011;41619;42.816;23.226;2022-08-19T13:30:47;5.13;;;3.63;;
55314;SDS011;41619;42.816;23.226;2022-08-19T13:33:31;6.07;;;3.58;;
55314;SDS011;41619;42.816;23.226;2022-08-19T13:35:58;10.38;;;3.38;;
55314;SDS011;41619;42.816;23.226;2022-08-19T13:38:26;11.80;;;3.67;;
55314;SDS011;41619;42.816;23.226;2022-08-19T13:40:52;8.85;;;3.40;;
55314;SDS011;41619;42.816;23.226;2022-08-19T13:43:19;11.70;;;4.50;;
55314;SDS011;41619;42.816;23.226;2022-08-19T13:45:47;18.88;;;4.13;;
55314;SDS011;41619;42.816;23.226;2022-08-19T13:48:12;8.65;;;3.75;;
55314;SDS011;41619;42.816;23.226;2022-08-19T13:50:39;7.25;;;4.03;;
55314;SDS011;41619;42.816;23.226;2022-08-19T13:53:07;9.73;;;3.45;;
55314;SDS011;41619;42.816;23.226;2022-08-19T13:55:34;6.72;;;3.55;;
55314;SDS011;41619;42.816;23.226;2022-08-19T13:58:01;9.82;;;3.53;;
55314;SDS011;41619;42.816;23.226;2022-08-19T14:00:31;10.18;;;3.45;;
55314;SDS011;41619;42.816;23.226;2022-08-19T14:02:58;7.82;;;3.88;;
55314;SDS011;41619;42.816;23.226;2022-08-19T14:05:24;8.85;;;4.07;;
55314;SDS011;41619;42.816;23.226;2022-08-19T14:07:51;13.45;;;3.90;;
55314;SDS011;41619;42.816;23.226;2022-08-19T14:10:17;8.75;;;3.97;;
55314;SDS011;41619;42.816;23.226;2022-08-19T14:12:43;8.20;;;4.40;;
55314;SDS011;41619;42.816;23.226;2022-08-19T14:15:10;10.70;;;3.97;;
55314;SDS011;41619;42.816;23.226;2022-08-19T14:17:40;20.25;;;4.30;;
55314;SDS011;41619;42.816;23.226;2022-08-19T14:20:07;14.43;;;4.10;;
55314;SDS011;41619;42.816;23.226;2022-08-19T14:22:38;7.68;;;3.42;;
55314;SDS011;41619;42.816;23.226;2022-08-19T14:25:05;9.38;;;3.85;;
55314;SDS011;41619;42.816;23.226;2022-08-19T14:27:35;14.25;;;4.10;;
55314;SDS011;41619;42.816;23.226;2022-08-19T14:30:03;11.73;;;4.32;;
55314;SDS011;41619;42.816;23.226;2022-08-19T14:32:31;5.63;;;3.78;;
55314;SDS011;41619;42.816;23.226;2022-08-19T14:34:58;13.90;;;3.60;;
55314;SDS011;41619;42.816;23.226;2022-08-19T14:37:23;14.75;;;3.70;;
55314;SDS011;41619;42.816;23.226;2022-08-19T14:39:48;12.57;;;3.90;;
55314;SDS011;41619;42.816;23.226;2022-08-19T14:42:14;19.15;;;4.47;;
55314;SDS011;41619;42.816;23.226;2022-08-19T14:44:39;11.52;;;3.97;;
55314;SDS011;41619;42.816;23.226;2022-08-19T14:47:06;17.15;;;4.43;;
55314;SDS011;41619;42.816;23.226;2022-08-19T14:49:32;11.70;;;4.10;;
55314;SDS011;41619;42.816;23.226;2022-08-19T14:51:58;13.00;;;3.83;;
55314;SDS011;41619;42.816;23.226;2022-08-19T14:54:24;7.05;;;4.05;;
55314;SDS011;41619;42.816;23.226;2022-08-19T14:56:49;12.30;;;3.78;;
55314;SDS011;41619;42.816;23.226;2022-08-19T14:59:15;22.40;;;5.35;;
55314;SDS011;41619;42.816;23.226;2022-08-19T15:01:40;36.60;;;4.10;;
55314;SDS011;41619;42.816;23.226;2022-08-19T15:04:06;21.48;;;5.40;;
55314;SDS011;41619;42.816;23.226;2022-08-19T15:06:31;37.13;;;6.47;;
55314;SDS011;41619;42.816;23.226;2022-08-19T15:08:57;22.40;;;4.47;;
55314;SDS011;41619;42.816;23.226;2022-08-19T15:11:25;20.25;;;4.22;;
55314;SDS011;41619;42.816;23.226;2022-08-19T15:13:53;19.17;;;5.00;;
55314;SDS011;41619;42.816;23.226;2022-08-19T15:16:19;8.10;;;4.18;;
55314;SDS011;41619;42.816;23.226;2022-08-19T15:18:45;12.50;;;4.20;;
55314;SDS011;41619;42.816;23.226;2022-08-19T15:21:14;8.15;;;4.25;;
55314;SDS011;41619;42.816;23.226;2022-08-19T15:23:44;7.30;;;4.35;;
55314;SDS011;41619;42.816;23.226;2022-08-19T15:26:10;12.68;;;4.60;;
55314;SDS011;41619;42.816;23.226;2022-08-19T15:28:37;14.27;;;4.95;;
55314;SDS011;41619;42.816;23.226;2022-08-19T15:31:03;16.63;;;4.68;;
55314;SDS011;41619;42.816;23.226;2022-08-19T15:33:33;10.82;;;4.10;;
55314;SDS011;41619;42.816;23.226;2022-08-19T15:36:04;9.57;;;4.70;;
55314;SDS011;41619;42.816;23.226;2022-08-19T15:38:30;8.48;;;4.50;;
55314;SDS011;41619;42.816;23.226;2022-08-19T15:40:58;9.27;;;3.90;;
55314;SDS011;41619;42.816;23.226;2022-08-19T15:43:44;10.85;;;4.50;;
55314;SDS011;41619;42.816;23.226;2022-08-19T15:46:10;16.52;;;5.03;;
55314;SDS011;41619;42.816;23.226;2022-08-19T15:48:36;8.00;;;4.60;;
55314;SDS011;41619;42.816;23.226;2022-08-19T15:51:02;8.13;;;4.82;;
55314;SDS011;41619;42.816;23.226;2022-08-19T15:53:28;17.60;;;4.68;;
55314;SDS011;41619;42.816;23.226;2022-08-19T15:55:53;11.02;;;4.70;;
55314;SDS011;41619;42.816;23.226;2022-08-19T15:58:18;9.18;;;5.63;;
55314;SDS011;41619;42.816;23.226;2022-08-19T16:01:05;12.15;;;5.05;;
55314;SDS011;41619;42.816;23.226;2022-08-19T16:03:51;16.70;;;5.55;;
55314;SDS011;41619;42.816;23.226;2022-08-19T16:06:37;12.25;;;4.45;;
55314;SDS011;41619;42.816;23.226;2022-08-19T16:09:03;9.90;;;4.80;;
55314;SDS011;41619;42.816;23.226;2022-08-19T16:11:30;11.63;;;5.18;;
55314;SDS011;41619;42.816;23.226;2022-08-19T16:13:58;18.75;;;5.20;;
55314;SDS011;41619;42.816;23.226;2022-08-19T16:16:26;8.23;;;4.68;;
55314;SDS011;41619;42.816;23.226;2022-08-19T16:18:55;12.95;;;5.85;;
55314;SDS011;41619;42.816;23.226;2022-08-19T16:21:22;9.85;;;5.07;;
55314;SDS011;41619;42.816;23.226;2022-08-19T16:23:51;10.38;;;5.47;;
55314;SDS011;41619;42.816;23.226;2022-08-19T16:26:17;7.93;;;4.45;;
55314;SDS011;41619;42.816;23.226;2022-08-19T16:28:43;11.05;;;4.20;;
55314;SDS011;41619;42.816;23.226;2022-08-19T16:31:11;7.03;;;4.82;;
55314;SDS011;41619;42.816;23.226;2022-08-19T16:33:37;9.05;;;5.03;;
55314;SDS011;41619;42.816;23.226;2022-08-19T16:36:03;10.30;;;4.53;;
55314;SDS011;41619;42.816;23.226;2022-08-19T16:38:30;7.07;;;4.10;;
55314;SDS011;41619;42.816;23.226;2022-08-19T16:40:56;11.25;;;4.72;;
55314;SDS011;41619;42.816;23.226;2022-08-19T16:43:24;10.50;;;4.75;;
55314;SDS011;41619;42.816;23.226;2022-08-19T16:45:50;7.97;;;4.72;;
55314;SDS011;41619;42.816;23.226;2022-08-19T16:48:21;8.27;;;4.65;;
55314;SDS011;41619;42.816;23.226;2022-08-19T16:50:49;11.23;;;4.88;;
55314;SDS011;41619;42.816;23.226;2022-08-19T16:53:19;9.10;;;4.88;;
55314;SDS011;41619;42.816;23.226;2022-08-19T16:55:47;13.32;;;5.13;;
55314;SDS011;41619;42.816;23.226;2022-08-19T16:58:18;10.48;;;4.90;;
55314;SDS011;41619;42.816;23.226;2022-08-19T17:00:45;9.57;;;4.80;;
55314;SDS011;41619;42.816;23.226;2022-08-19T17:03:12;11.15;;;4.65;;
55314;SDS011;41619;42.816;23.226;2022-08-19T17:05:41;11.75;;;4.63;;
55314;SDS011;41619;42.816;23.226;2022-08-19T17:08:18;17.30;;;4.80;;
55314;SDS011;41619;42.816;23.226;2022-08-19T17:13:11;14.10;;;4.85;;
55314;SDS011;41619;42.816;23.226;2022-08-19T17:15:41;8.57;;;4.45;;
55314;SDS011;41619;42.816;23.226;2022-08-19T17:18:07;12.95;;;4.80;;
55314;SDS011;41619;42.816;23.226;2022-08-19T17:20:34;14.30;;;5.30;;
55314;SDS011;41619;42.816;23.226;2022-08-19T17:23:01;9.93;;;5.22;;
55314;SDS011;41619;42.816;23.226;2022-08-19T17:25:28;9.48;;;4.90;;
55314;SDS011;41619;42.816;23.226;2022-08-19T17:27:55;13.93;;;5.13;;
55314;SDS011;41619;42.816;23.226;2022-08-19T17:30:22;16.15;;;6.55;;
55314;SDS011;41619;42.816;23.226;2022-08-19T17:32:48;9.27;;;4.97;;
55314;SDS011;41619;42.816;23.226;2022-08-19T17:35:14;14.43;;;5.70;;
55314;SDS011;41619;42.816;23.226;2022-08-19T17:37:44;13.80;;;5.55;;
55314;SDS011;41619;42.816;23.226;2022-08-19T17:40:15;17.10;;;5.97;;
55314;SDS011;41619;42.816;23.226;2022-08-19T17:42:42;9.82;;;5.63;;
55314;SDS011;41619;42.816;23.226;2022-08-19T17:45:08;10.38;;;5.13;;
55314;SDS011;41619;42.816;23.226;2022-08-19T17:47:35;8.43;;;4.78;;
55314;SDS011;41619;42.816;23.226;2022-08-19T17:50:02;8.20;;;4.72;;